createdAt,value
2019-01-30T00:02:08.464Z,99867.53
2019-01-30T00:04:38.844Z,99865.38
2019-01-30T00:07:09.336Z,99856.35
2019-01-30T00:09:39.734Z,99859.28
2019-01-30T00:12:10.179Z,99852.42
2019-01-30T00:14:40.601Z,99854.52
2019-01-30T00:17:10.876Z,99855.38
2019-01-30T00:19:41.261Z,99851.88
2019-01-30T00:22:11.601Z,99850.54
2019-01-30T00:24:41.837Z,99846.18
2019-01-30T00:27:12.167Z,99843.98
2019-01-30T00:29:42.524Z,99843.98
2019-01-30T00:32:15.065Z,99834.47
2019-01-30T00:34:45.399Z,99844.72
2019-01-30T00:37:15.615Z,99842.13
2019-01-30T00:39:45.835Z,99833.97
2019-01-30T00:42:16.130Z,99833.97
2019-01-30T00:44:46.388Z,99833.13
2019-01-30T00:47:16.652Z,99828.39
2019-01-30T00:49:47.021Z,99824.10
2019-01-30T00:52:17.348Z,99820.71
2019-01-30T00:54:47.701Z,99814.69
2019-01-30T00:57:17.922Z,99815.55
2019-01-30T00:59:48.289Z,99817.70
2019-01-30T01:02:18.615Z,99815.55
2019-01-30T01:04:49.013Z,99806.86
2019-01-30T01:07:19.254Z,99806.86
2019-01-30T01:09:49.569Z,99807.70
2019-01-30T01:12:19.950Z,99809.81
2019-01-30T01:14:50.470Z,99807.66
2019-01-30T01:17:20.770Z,99802.06
2019-01-30T01:19:50.990Z,99802.06
2019-01-30T01:22:21.772Z,99808.95
2019-01-30T01:24:52.115Z,99799.86
2019-01-30T01:27:22.399Z,99798.59
2019-01-30T01:29:52.711Z,99796.44
2019-01-30T01:32:22.927Z,99794.70
2019-01-30T01:34:53.217Z,99796.02
2019-01-30T01:37:23.509Z,99796.91
2019-01-30T01:40:02.339Z,99788.28
2019-01-30T01:42:32.707Z,99797.30
2019-01-30T01:45:03.062Z,99790.41
2019-01-30T01:47:33.483Z,99789.99
2019-01-30T01:50:04.106Z,99787.84
2019-01-30T01:52:34.374Z,99786.92
2019-01-30T01:55:05.326Z,99784.34
2019-01-30T01:57:35.642Z,99788.64
2019-01-30T02:00:08.799Z,99782.20
2019-01-30T02:02:39.091Z,99776.12
2019-01-30T02:05:12.729Z,99769.62
2019-01-30T02:07:43.024Z,99768.33
2019-01-30T02:10:16.821Z,99764.04
2019-01-30T02:12:47.296Z,99764.84
2019-01-30T02:15:20.397Z,99757.55
2019-01-30T02:17:51.191Z,99763.55
2019-01-30T02:20:39.537Z,99762.27
2019-01-30T02:23:09.822Z,99759.20
2019-01-30T02:25:40.583Z,99761.34
2019-01-30T02:28:10.863Z,99760.06
2019-01-30T02:30:47.570Z,99757.91
2019-01-30T02:33:13.166Z,99746.70
2019-01-30T02:35:43.550Z,99745.79
2019-01-30T02:38:13.842Z,99747.48
2019-01-30T02:40:52.167Z,99742.33
2019-01-30T02:43:22.428Z,99738.42
2019-01-30T02:45:52.716Z,99737.45
2019-01-30T02:48:23.060Z,99740.95
2019-01-30T02:50:53.468Z,99740.99
2019-01-30T02:53:23.730Z,99741.05
2019-01-30T02:55:54.042Z,99741.91
2019-01-30T02:58:24.323Z,99741.44
2019-01-30T03:00:59.408Z,99741.48
2019-01-30T03:03:26.831Z,99741.11
2019-01-30T03:05:57.260Z,99739.82
2019-01-30T03:08:27.638Z,99736.33
2019-01-30T03:10:57.896Z,99733.82
2019-01-30T03:13:28.255Z,99732.16
2019-01-30T03:15:58.573Z,99731.29
2019-01-30T03:18:30.208Z,99727.00
2019-01-30T03:21:00.551Z,99717.55
2019-01-30T03:23:31.080Z,99725.81
2019-01-30T03:26:03.174Z,99711.64
2019-01-30T03:28:33.413Z,99715.45
2019-01-30T03:31:16.842Z,99704.77
2019-01-30T03:33:38.781Z,99705.20
2019-01-30T03:36:09.419Z,99704.72
2019-01-30T03:38:39.640Z,99697.86
2019-01-30T03:41:10.053Z,99696.99
2019-01-30T03:43:40.529Z,99699.56
2019-01-30T03:46:10.984Z,99697.80
2019-01-30T03:48:41.251Z,99696.08
2019-01-30T03:51:11.601Z,99693.98
2019-01-30T03:53:41.951Z,99693.98
2019-01-30T03:56:12.243Z,99694.41
2019-01-30T03:58:42.570Z,99693.98
2019-01-30T04:01:12.850Z,99690.97
2019-01-30T04:03:43.262Z,99688.39
2019-01-30T04:06:13.576Z,99684.95
2019-01-30T04:08:43.947Z,99681.16
2019-01-30T04:11:14.273Z,99676.91
2019-01-30T04:13:44.540Z,99675.24
2019-01-30T04:16:14.881Z,99679.55
2019-01-30T04:18:45.174Z,99676.97
2019-01-30T04:21:15.641Z,99674.44
2019-01-30T04:23:49.071Z,99671.91
2019-01-30T04:26:19.299Z,99665.09
2019-01-30T04:28:49.712Z,99658.64
2019-01-30T04:31:20.086Z,99659.93
2019-01-30T04:33:50.343Z,99657.74
2019-01-30T04:36:20.635Z,99665.09
2019-01-30T04:38:51.088Z,99660.31
2019-01-30T04:41:21.348Z,99658.13
2019-01-30T04:43:51.683Z,99658.97
2019-01-30T04:46:21.923Z,99652.91
2019-01-30T04:48:52.228Z,99653.67
2019-01-30T04:51:22.603Z,99652.85
2019-01-30T04:53:52.896Z,99645.50
2019-01-30T04:56:23.213Z,99647.22
2019-01-30T04:58:54.776Z,99647.61
2019-01-30T05:01:25.025Z,99641.97
2019-01-30T05:03:55.340Z,99638.48
2019-01-30T05:06:25.739Z,99638.10
2019-01-30T05:08:56.258Z,99636.38
2019-01-30T05:11:26.652Z,99635.09
2019-01-30T05:13:56.879Z,99637.19
2019-01-30T05:16:27.242Z,99631.60
2019-01-30T05:18:57.521Z,99634.13
2019-01-30T05:21:27.885Z,99633.70
2019-01-30T05:23:58.213Z,99634.99
2019-01-30T05:26:28.554Z,99633.27
2019-01-30T05:28:58.858Z,99635.47
2019-01-30T05:31:29.239Z,99631.17
2019-01-30T05:33:59.503Z,99636.81
2019-01-30T05:36:29.853Z,99632.13
2019-01-30T05:39:00.130Z,99633.05
2019-01-30T05:41:30.519Z,99636.48
2019-01-30T05:44:00.764Z,99634.81
2019-01-30T05:46:31.123Z,99630.91
2019-01-30T05:49:01.438Z,99634.44
2019-01-30T05:51:31.793Z,99628.38
2019-01-30T05:54:02.097Z,99630.19
2019-01-30T05:56:32.407Z,99632.83
2019-01-30T05:59:02.846Z,99627.72
2019-01-30T06:01:33.503Z,99625.15
2019-01-30T06:04:03.986Z,99623.48
2019-01-30T06:06:34.536Z,99618.80
2019-01-30T06:09:06.565Z,99623.96
2019-01-30T06:11:37.035Z,99620.95
2019-01-30T06:14:07.539Z,99617.95
2019-01-30T06:16:38.042Z,99617.13
2019-01-30T06:19:08.864Z,99609.41
2019-01-30T06:21:41.325Z,99608.58
2019-01-30T06:24:12.075Z,99610.31
2019-01-30T06:26:42.837Z,99602.14
2019-01-30T06:29:13.411Z,99607.73
2019-01-30T06:31:44.187Z,99600.86
2019-01-30T06:34:14.737Z,99597.89
2019-01-30T06:36:45.207Z,99598.27
2019-01-30T06:39:15.790Z,99601.72
2019-01-30T06:41:46.385Z,99596.56
2019-01-30T06:44:16.899Z,99599.56
2019-01-30T06:46:47.477Z,99595.70
2019-01-30T06:49:18.058Z,99597.84
2019-01-30T06:51:48.534Z,99597.79
2019-01-30T06:54:19.050Z,99596.98
2019-01-30T06:56:49.562Z,99593.50
2019-01-30T06:59:20.002Z,99596.56
2019-01-30T07:01:50.639Z,99592.69
2019-01-30T07:04:21.203Z,99595.31
2019-01-30T07:06:55.302Z,99593.12
2019-01-30T07:09:25.807Z,99594.42
2019-01-30T07:11:56.191Z,99591.02
2019-01-30T07:14:26.680Z,99584.11
2019-01-30T07:16:57.183Z,99583.28
2019-01-30T07:19:27.781Z,99576.80
2019-01-30T07:21:58.310Z,99577.27
2019-01-30T07:24:28.651Z,99575.55
2019-01-30T07:26:58.970Z,99575.98
2019-01-30T07:29:29.342Z,99576.41
2019-01-30T07:31:59.667Z,99580.72
2019-01-30T07:34:29.868Z,99575.13
2019-01-30T07:37:00.198Z,99570.88
2019-01-30T07:39:30.540Z,99578.23
2019-01-30T07:42:00.885Z,99576.52
2019-01-30T07:44:31.247Z,99572.27
2019-01-30T07:47:01.553Z,99576.65
2019-01-30T07:49:31.710Z,99575.80
2019-01-30T07:52:02.003Z,99573.26
2019-01-30T07:54:32.238Z,99576.75
2019-01-30T07:57:05.281Z,99578.56
2019-01-30T07:59:35.623Z,99581.62
2019-01-30T08:02:06.880Z,99575.68
2019-01-30T08:04:39.746Z,99573.58
2019-01-30T08:07:10.038Z,99573.19
2019-01-30T08:09:41.827Z,99577.50
2019-01-30T08:12:12.700Z,99571.52
2019-01-30T08:14:43.058Z,99568.56
2019-01-30T08:17:13.433Z,99569.50
2019-01-30T08:19:43.704Z,99574.71
2019-01-30T08:22:14.078Z,99576.04
2019-01-30T08:24:44.858Z,99577.41
2019-01-30T08:27:15.590Z,99570.59
2019-01-30T08:29:46.383Z,99571.96
2019-01-30T08:32:16.916Z,99575.52
2019-01-30T08:34:47.360Z,99569.12
2019-01-30T08:37:17.630Z,99570.02
2019-01-30T08:39:49.603Z,99568.38
2019-01-30T08:42:20.049Z,99564.98
2019-01-30T08:44:50.367Z,99568.45
2019-01-30T08:47:20.690Z,99562.48
2019-01-30T08:49:51.093Z,99571.08
2019-01-30T08:52:21.489Z,99571.52
2019-01-30T08:54:51.812Z,99575.81
2019-01-30T08:57:22.216Z,99570.22
2019-01-30T08:59:52.665Z,99565.49
2019-01-30T09:02:23.114Z,99568.55
2019-01-30T09:04:55.567Z,99567.72
2019-01-30T09:07:25.805Z,99571.98
2019-01-30T09:09:56.305Z,99571.59
2019-01-30T09:12:26.816Z,99572.53
2019-01-30T09:14:57.613Z,99567.37
2019-01-30T09:17:29.041Z,99572.58
2019-01-30T09:20:01.982Z,99567.80
2019-01-30T09:22:32.446Z,99570.85
2019-01-30T09:25:05.060Z,99568.74
2019-01-30T09:27:35.507Z,99571.36
2019-01-30T09:30:10.044Z,99577.82
2019-01-30T09:32:40.419Z,99578.76
2019-01-30T09:35:18.701Z,99582.67
2019-01-30T09:37:50.908Z,99584.94
2019-01-30T09:40:21.398Z,99583.72
2019-01-30T09:42:55.187Z,99585.12
2019-01-30T09:45:26.444Z,99579.28
2019-01-30T09:47:56.951Z,99583.23
2019-01-30T09:50:27.317Z,99585.92
2019-01-30T09:53:01.082Z,99588.22
2019-01-30T09:55:31.526Z,99581.00
2019-01-30T09:58:02.357Z,99587.56
2019-01-30T10:00:37.827Z,99581.63
2019-01-30T10:03:11.720Z,99587.76
2019-01-30T10:05:42.154Z,99586.16
2019-01-30T10:08:12.490Z,99594.41
2019-01-30T10:10:42.883Z,99587.61
2019-01-30T10:13:13.405Z,99595.02
2019-01-30T10:15:45.294Z,99598.97
2019-01-30T10:18:16.716Z,99602.91
2019-01-30T10:20:48.563Z,99601.73
2019-01-30T10:23:20.389Z,99605.73
2019-01-30T10:25:50.773Z,99601.52
2019-01-30T10:28:21.828Z,99599.45
2019-01-30T10:30:54.301Z,99602.14
2019-01-30T10:33:27.637Z,99593.12
2019-01-30T10:36:00.931Z,99597.11
2019-01-30T10:38:32.674Z,99600.17
2019-01-30T10:41:06.726Z,99595.94
2019-01-30T10:43:38.766Z,99588.17
2019-01-30T10:46:12.010Z,99583.40
2019-01-30T10:48:42.258Z,99582.53
2019-01-30T10:51:12.558Z,99584.64
2019-01-30T10:53:43.024Z,99581.17
2019-01-30T10:56:13.502Z,99572.49
2019-01-30T10:58:45.754Z,99574.58
2019-01-30T11:01:16.301Z,99571.53
2019-01-30T11:03:57.070Z,99571.56
2019-01-30T11:06:23.886Z,99569.85
2019-01-30T11:08:54.525Z,99561.70
2019-01-30T11:11:26.943Z,99548.80
2019-01-30T11:13:58.146Z,99553.21
2019-01-30T11:16:35.264Z,99547.22
2019-01-30T11:19:09.321Z,99539.97
2019-01-30T11:21:44.547Z,99540.84
2019-01-30T11:24:16.217Z,99540.00
2019-01-30T11:26:49.898Z,99539.19
2019-01-30T11:29:21.451Z,99543.50
2019-01-30T11:31:51.967Z,99540.48
2019-01-30T11:34:22.515Z,99541.80
2019-01-30T11:36:53.146Z,99537.95
2019-01-30T11:39:26.327Z,99537.09
2019-01-30T11:41:57.728Z,99539.29
2019-01-30T11:44:28.732Z,99534.98
2019-01-30T11:46:59.257Z,99533.69
2019-01-30T11:49:30.373Z,99523.33
2019-01-30T11:52:07.297Z,99523.38
2019-01-30T11:54:38.848Z,99526.84
2019-01-30T11:57:08.843Z,99518.20
2019-01-30T11:59:57.962Z,99521.25
2019-01-30T12:02:14.581Z,99521.27
2019-01-30T12:04:45.536Z,99522.56
2019-01-30T12:07:16.059Z,99516.53
2019-01-30T12:09:47.470Z,99510.92
2019-01-30T12:12:22.576Z,99513.08
2019-01-30T12:14:53.046Z,99511.36
2019-01-30T12:17:23.499Z,99507.02
2019-01-30T12:19:54.085Z,99515.25
2019-01-30T12:22:24.544Z,99512.25
2019-01-30T12:24:55.069Z,99512.20
2019-01-30T12:27:25.516Z,99514.80
2019-01-30T12:29:55.926Z,99511.34
2019-01-30T12:32:27.659Z,99513.94
2019-01-30T12:35:00.828Z,99507.02
2019-01-30T12:37:34.511Z,99507.88
2019-01-30T12:40:07.611Z,99508.73
2019-01-30T12:42:38.073Z,99509.14
2019-01-30T12:45:11.667Z,99506.55
2019-01-30T12:47:45.002Z,99511.30
2019-01-30T12:50:15.661Z,99503.09
2019-01-30T12:52:46.294Z,99512.56
2019-01-30T12:55:18.321Z,99506.08
2019-01-30T12:57:55.770Z,99509.12
2019-01-30T13:00:31.799Z,99511.74
2019-01-30T13:03:07.058Z,99508.68
2019-01-30T13:05:38.334Z,99506.93
2019-01-30T13:08:09.141Z,99502.19
2019-01-30T13:10:39.847Z,99500.02
2019-01-30T13:13:13.983Z,99501.34
2019-01-30T13:15:48.650Z,99513.43
2019-01-30T13:18:20.715Z,99501.34
2019-01-30T13:20:55.041Z,99506.52
2019-01-30T13:23:25.650Z,99505.66
2019-01-30T13:25:59.275Z,99511.70
2019-01-30T13:28:29.828Z,99508.65
2019-01-30T13:31:03.206Z,99508.61
2019-01-30T13:33:33.710Z,99507.72
2019-01-30T13:36:04.499Z,99500.81
2019-01-30T13:38:45.152Z,99502.52
2019-01-30T13:41:15.579Z,99505.52
2019-01-30T13:43:47.228Z,99502.47
2019-01-30T13:46:17.838Z,99500.73
2019-01-30T13:48:54.813Z,99498.98
2019-01-30T13:51:26.386Z,99498.12
2019-01-30T13:54:13.225Z,99492.48
2019-01-30T13:57:14.327Z,99488.62
2019-01-30T13:59:45.252Z,99482.06
2019-01-30T14:02:15.883Z,99494.09
2019-01-30T14:04:59.141Z,99488.06
2019-01-30T14:07:21.170Z,99488.45
2019-01-30T14:09:51.921Z,99483.66
2019-01-30T14:12:34.247Z,99481.08
2019-01-30T14:15:09.461Z,99487.95
2019-01-30T14:17:40.127Z,99485.37
2019-01-30T14:20:12.199Z,99484.05
2019-01-30T14:22:43.064Z,99491.83
2019-01-30T14:25:16.654Z,99491.84
2019-01-30T14:27:47.271Z,99495.70
2019-01-30T14:30:21.949Z,99491.81
2019-01-30T14:32:57.706Z,99495.67
2019-01-30T14:35:31.174Z,99494.36
2019-01-30T14:38:06.321Z,99487.44
2019-01-30T14:40:40.095Z,99488.73
2019-01-30T14:43:12.497Z,99489.58
2019-01-30T14:45:50.946Z,99485.66
2019-01-30T14:48:24.660Z,99490.37
2019-01-30T14:50:55.643Z,99488.65
2019-01-30T14:53:31.621Z,99468.23
2019-01-30T14:56:04.991Z,99486.02
2019-01-30T14:58:42.322Z,99482.57
2019-01-30T15:01:13.440Z,99484.67
2019-01-30T15:03:50.308Z,99486.41
2019-01-30T15:06:28.778Z,99487.66
2019-01-30T15:08:59.573Z,99491.89
2019-01-30T15:11:30.280Z,99499.17
2019-01-30T15:14:15.666Z,99503.03
2019-01-30T15:16:59.047Z,99505.60
2019-01-30T15:19:32.613Z,99507.30
2019-01-30T15:22:04.638Z,99504.20
2019-01-30T15:24:37.932Z,99498.97
2019-01-30T15:27:11.146Z,99499.84
2019-01-30T15:29:45.130Z,99505.39
2019-01-30T15:32:15.940Z,99509.70
2019-01-30T15:34:46.594Z,99507.09
2019-01-30T15:37:21.753Z,99507.95
2019-01-30T15:39:52.812Z,99510.94
2019-01-30T15:42:27.925Z,99504.04
2019-01-30T15:45:01.797Z,99511.83
2019-01-30T15:47:38.846Z,99507.03
2019-01-30T15:50:23.343Z,99520.86
2019-01-30T15:52:56.027Z,99515.19
2019-01-30T15:55:36.929Z,99521.23
2019-01-30T15:58:10.139Z,99521.63
2019-01-30T16:00:59.070Z,99524.62
2019-01-30T16:03:36.517Z,99524.59
2019-01-30T16:06:10.723Z,99525.39
2019-01-30T16:08:51.054Z,99526.63
2019-01-30T16:11:30.800Z,99519.24
2019-01-30T16:14:13.603Z,99525.65
2019-01-30T16:16:44.380Z,99526.02
2019-01-30T16:19:16.872Z,99525.92
2019-01-30T16:21:48.190Z,99527.59
2019-01-30T16:24:22.007Z,99535.30
2019-01-30T16:26:52.566Z,99535.73
2019-01-30T16:29:32.124Z,99537.42
2019-01-30T16:32:21.916Z,99540.84
2019-01-30T16:34:57.234Z,99537.33
2019-01-30T16:37:27.988Z,99539.05
2019-01-30T16:40:03.316Z,99540.70
2019-01-30T16:42:41.455Z,99544.16
2019-01-30T16:45:27.900Z,99544.52
2019-01-30T16:48:55.793Z,99547.95
2019-01-30T16:52:36.977Z,99545.34
2019-01-30T16:55:16.422Z,99541.83
2019-01-30T16:57:59.982Z,99546.09
2019-01-30T17:00:46.661Z,99543.52
2019-01-30T17:03:19.525Z,99551.27
2019-01-30T17:05:54.361Z,99549.50
2019-01-30T17:08:32.504Z,99553.77
2019-01-30T17:11:36.306Z,99551.19
2019-01-30T17:14:12.583Z,99559.80
2019-01-30T17:16:43.122Z,99555.46
2019-01-30T17:19:13.920Z,99560.63
2019-01-30T17:21:52.408Z,99557.22
2019-01-30T17:24:25.872Z,99561.09
2019-01-30T17:26:59.891Z,99555.53
2019-01-30T17:29:31.427Z,99566.76
2019-01-30T17:32:06.420Z,99562.81
2019-01-30T17:34:42.131Z,99562.81
2019-01-30T17:37:20.190Z,99566.26
2019-01-30T17:39:51.019Z,99564.11
2019-01-30T17:42:22.795Z,99567.59
2019-01-30T17:44:53.625Z,99561.52
2019-01-30T17:47:26.893Z,99563.24
2019-01-30T17:50:01.315Z,99565.40
2019-01-30T17:52:33.629Z,99567.12
2019-01-30T17:55:04.590Z,99568.84
2019-01-30T17:57:35.293Z,99566.69
2019-01-30T18:00:37.955Z,99565.40
2019-01-30T18:03:08.510Z,99565.40
2019-01-30T18:05:40.470Z,99565.40
2019-01-30T18:08:11.097Z,99559.80
2019-01-30T18:10:41.504Z,99559.80
2019-01-30T18:13:11.953Z,99562.38
2019-01-30T18:15:43.946Z,99561.48
2019-01-30T18:18:14.261Z,99562.34
2019-01-30T18:20:44.784Z,99563.64
2019-01-30T18:23:15.247Z,99563.21
2019-01-30T18:25:46.288Z,99554.60
2019-01-30T18:28:16.706Z,99552.88
2019-01-30T18:30:50.036Z,99555.46
2019-01-30T18:33:21.164Z,99553.73
2019-01-30T18:35:51.647Z,99551.95
2019-01-30T18:38:21.992Z,99551.95
2019-01-30T18:40:52.404Z,99550.69
2019-01-30T18:43:22.693Z,99546.81
2019-01-30T18:45:53.097Z,99547.64
2019-01-30T18:48:24.641Z,99545.05
2019-01-30T18:50:56.959Z,99546.78
2019-01-30T18:53:27.386Z,99545.92
2019-01-30T18:56:03.490Z,99546.74
2019-01-30T18:58:34.267Z,99544.20
2019-01-30T19:01:06.930Z,99544.23
2019-01-30T19:03:37.896Z,99550.69
2019-01-30T19:06:08.748Z,99549.86
2019-01-30T19:08:41.298Z,99548.11
2019-01-30T19:11:12.162Z,99545.13
2019-01-30T19:13:43.072Z,99543.80
2019-01-30T19:16:14.118Z,99545.09
2019-01-30T19:18:44.967Z,99547.67
2019-01-30T19:21:16.255Z,99542.51
2019-01-30T19:23:46.972Z,99540.79
2019-01-30T19:26:17.995Z,99539.50
2019-01-30T19:28:49.105Z,99539.92
2019-01-30T19:31:20.306Z,99540.79
2019-01-30T19:33:54.060Z,99542.51
2019-01-30T19:36:25.179Z,99538.67
2019-01-30T19:38:55.939Z,99548.58
2019-01-30T19:41:26.577Z,99541.69
2019-01-30T19:43:57.212Z,99542.08
2019-01-30T19:46:27.910Z,99542.11
2019-01-30T19:48:59.046Z,99545.98
2019-01-30T19:51:30.183Z,99546.81
2019-01-30T19:54:02.520Z,99550.73
2019-01-30T19:56:33.408Z,99550.69
2019-01-30T19:59:04.127Z,99548.11
2019-01-30T20:01:36.171Z,99539.42
2019-01-30T20:04:07.881Z,99540.28
2019-01-30T20:06:39.226Z,99540.72
2019-01-30T20:09:18.553Z,99545.84
2019-01-30T20:11:50.567Z,99540.25
2019-01-30T20:14:21.130Z,99546.67
2019-01-30T20:16:52.021Z,99551.80
2019-01-30T20:19:22.941Z,99541.47
2019-01-30T20:22:00.637Z,99544.91
2019-01-30T20:24:31.290Z,99541.04
2019-01-30T20:27:04.526Z,99540.17
2019-01-30T20:29:35.247Z,99547.96
2019-01-30T20:32:06.318Z,99544.09
2019-01-30T20:34:37.180Z,99550.54
2019-01-30T20:37:07.937Z,99551.41
2019-01-30T20:39:38.800Z,99558.72
2019-01-30T20:42:09.769Z,99556.14
2019-01-30T20:44:40.520Z,99558.72
2019-01-30T20:47:11.626Z,99562.12
2019-01-30T20:49:42.350Z,99559.97
2019-01-30T20:52:15.490Z,99565.14
2019-01-30T20:54:46.305Z,99569.44
2019-01-30T20:57:18.612Z,99573.31
2019-01-30T20:59:49.445Z,99574.61
2019-01-30T21:02:20.302Z,99573.28
2019-01-30T21:04:51.090Z,99572.02
2019-01-30T21:07:22.008Z,99576.69
2019-01-30T21:09:52.663Z,99574.57
2019-01-30T21:12:23.558Z,99572.42
2019-01-30T21:14:54.366Z,99572.41
2019-01-30T21:17:27.897Z,99574.53
2019-01-30T21:19:58.779Z,99572.34
2019-01-30T21:22:32.264Z,99571.91
2019-01-30T21:25:03.119Z,99564.59
2019-01-30T21:27:34.044Z,99562.41
2019-01-30T21:30:06.097Z,99565.89
2019-01-30T21:32:40.470Z,99559.43
2019-01-30T21:35:11.640Z,99568.04
2019-01-30T21:37:48.952Z,99563.70
2019-01-30T21:40:20.490Z,99558.06
2019-01-30T21:42:51.456Z,99557.55
2019-01-30T21:45:24.547Z,99568.16
2019-01-30T21:47:55.226Z,99574.91
2019-01-30T21:50:25.792Z,99570.92
2019-01-30T21:52:56.454Z,99568.69
2019-01-30T21:55:34.396Z,99574.66
2019-01-30T21:58:08.234Z,99578.50
2019-01-30T22:00:39.096Z,99574.63
2019-01-30T22:03:09.873Z,99571.19
2019-01-30T22:05:41.452Z,99578.11
2019-01-30T22:08:12.197Z,99578.15
2019-01-30T22:10:43.188Z,99579.87
2019-01-30T22:13:13.791Z,99579.44
2019-01-30T22:15:44.483Z,99576.90
2019-01-30T22:18:14.809Z,99577.30
2019-01-30T22:20:45.285Z,99578.15
2019-01-30T22:23:17.572Z,99578.19
2019-01-30T22:25:49.494Z,99575.61
2019-01-30T22:28:20.160Z,99579.48
2019-01-30T22:30:50.536Z,99572.59
2019-01-30T22:33:21.003Z,99577.30
2019-01-30T22:35:51.433Z,99591.53
2019-01-30T22:38:21.927Z,99578.50
2019-01-30T22:40:52.223Z,99580.73
2019-01-30T22:43:25.001Z,99579.83
2019-01-30T22:45:56.465Z,99579.40
2019-01-30T22:48:26.899Z,99582.88
2019-01-30T22:50:58.766Z,99582.88
2019-01-30T22:53:29.302Z,99582.45
2019-01-30T22:55:59.678Z,99578.15
2019-01-30T22:58:30.366Z,99584.64
2019-01-30T23:01:52.855Z,99584.64
2019-01-30T23:05:37.724Z,99589.81
2019-01-30T23:08:44.590Z,99589.37
2019-01-30T23:12:13.299Z,99594.88
2019-01-30T23:15:00.721Z,99591.39
2019-01-30T23:18:37.848Z,99579.66
2019-01-30T23:21:18.989Z,99583.40
2019-01-30T23:24:47.855Z,99575.05
2019-01-30T23:27:34.870Z,99573.29
2019-01-30T23:30:45.165Z,99574.83
2019-01-30T23:33:44.246Z,99578.55
2019-01-30T23:37:10.783Z,99582.33
2019-01-30T23:40:23.973Z,99585.72
2019-01-30T23:43:54.257Z,99573.55
2019-01-30T23:46:57.316Z,99573.84
2019-01-30T23:50:38.629Z,99572.98
2019-01-30T23:54:06.116Z,99579.84
2019-01-30T23:57:32.797Z,99581.52
